Kampala, Uganda
Current Conditions -  °F | °C
As of 6:00 PM on Wednesday 26 Nov 2014 (Local Time) from HUEN Reporting Station
Scattered Clouds Scattered Clouds  
Wind Chill: 73°   Ceiling: Unl
Heat Index: 73°   Visibility: 6mi
Dew Point: 64°   Wind: 5mph
Humidity: 73%   Direction: 350°N
Pressure: 29.94"   Gusts: NA
Location:  0.32°N, 32.58°E
Report Text: HUEN 261500Z 35004KT 9999 FEW020 FEW022CB SCT250 23/18 Q1014
Loading
Personal Weather Stations






























Interactive Weather Map New forecast layout! Learn more

10-Day Weather Forecast

Advertisements
Track Severe Weather on mobile